Time;durP1;ratioP1;P1;durP2;ratioP2;P2;SDS_P1;SDS_P2;PMS_P1;PMS_P2;Temp;Humidity;BMP_temperature;BMP_pressure;BME280_temperature;BME280_humidity;BME280_pressure;Samples;Min_cycle;Max_cycle;Signal;HPM_P1;HPM_P2
2022/06/11 00:02:01;;;;;;;7.07;1.65;;;19.40;99.90;;;;;;12207390;29;20075;-88
2022/06/11 00:08:05;;;;;;;4.47;1.45;;;19.30;99.90;;;;;;12184434;29;20107;-88
2022/06/11 00:14:08;;;;;;;6.32;1.58;;;19.30;99.90;;;;;;12185277;29;20060;-89
2022/06/11 00:20:10;;;;;;;6.03;1.58;;;19.30;99.90;;;;;;12184673;29;20491;-87
2022/06/11 00:26:14;;;;;;;4.75;1.48;;;19.30;99.90;;;;;;12184598;29;20059;-88
2022/06/11 00:32:16;;;;;;;4.95;1.55;;;19.30;99.90;;;;;;12182650;29;21905;-88
2022/06/11 00:38:19;;;;;;;8.80;1.58;;;19.30;99.90;;;;;;12168842;29;20087;-89
2022/06/11 00:44:21;;;;;;;5.97;1.70;;;19.30;99.90;;;;;;12196055;29;20067;-89
2022/06/11 00:50:29;;;;;;;7.93;1.50;;;19.30;99.90;;;;;;12194153;29;20052;-89
2022/06/11 00:56:37;;;;;;;4.88;1.40;;;19.30;99.90;;;;;;12176010;29;20063;-88
2022/06/11 01:02:39;;;;;;;7.47;1.80;;;19.20;99.90;;;;;;12197543;29;20044;-89
2022/06/11 01:08:55;;;;;;;10.60;1.98;;;19.20;99.90;;;;;;12176755;29;20087;-88
2022/06/11 01:15:13;;;;;;;5.47;1.50;;;19.20;99.90;;;;;;12178021;29;20167;-89
2022/06/11 01:21:22;;;;;;;5.43;1.40;;;19.20;99.90;;;;;;12193310;29;20063;-88
2022/06/11 01:27:55;;;;;;;5.18;1.30;;;19.20;99.90;;;;;;12175489;29;20107;-88
2022/06/11 01:34:30;;;;;;;7.22;1.77;;;19.10;99.90;;;;;;12166786;29;20071;-88
2022/06/11 01:40:46;;;;;;;6.28;1.38;;;19.10;99.90;;;;;;12157318;29;20052;-88
2022/06/11 01:46:52;;;;;;;5.57;1.40;;;19.10;99.90;;;;;;12173754;29;20092;-88
2022/06/11 01:53:17;;;;;;;8.57;1.58;;;19.10;99.90;;;;;;12183083;29;20173;-89
2022/06/11 01:59:46;;;;;;;3.90;1.50;;;19.00;99.90;;;;;;12218168;28;20140;-87
2022/06/11 02:06:20;;;;;;;6.70;1.85;;;19.10;99.90;;;;;;12206703;29;20105;-89
2022/06/11 02:12:33;;;;;;;5.70;1.70;;;19.10;99.90;;;;;;12172869;29;20063;-88
2022/06/11 02:18:37;;;;;;;7.68;1.85;;;19.10;99.90;;;;;;12192432;29;20438;-87
2022/06/11 02:25:12;;;;;;;4.78;1.80;;;19.10;99.90;;;;;;12168492;29;20083;-88
2022/06/11 02:31:19;;;;;;;7.03;1.52;;;19.10;99.90;;;;;;12193901;29;20106;-87
2022/06/11 02:37:36;;;;;;;9.18;2.33;;;19.00;99.90;;;;;;12181489;29;20072;-89
2022/06/11 02:43:38;;;;;;;3.80;1.38;;;19.10;99.90;;;;;;12191869;29;20048;-88
2022/06/11 02:49:41;;;;;;;7.72;2.00;;;19.00;99.90;;;;;;12207121;29;20083;-88
2022/06/11 02:55:45;;;;;;;7.38;1.70;;;19.00;99.90;;;;;;12191399;29;20107;-88
2022/06/11 03:01:48;;;;;;;6.45;1.88;;;18.90;99.90;;;;;;12180473;29;20128;-88
2022/06/11 03:07:50;;;;;;;5.47;1.87;;;18.90;99.90;;;;;;12187551;29;20048;-88
2022/06/11 03:13:52;;;;;;;6.85;1.83;;;18.90;99.90;;;;;;12192365;29;20123;-89
2022/06/11 03:19:54;;;;;;;5.80;1.80;;;18.90;99.90;;;;;;12191795;29;20154;-87
2022/06/11 03:25:56;;;;;;;5.70;1.45;;;18.80;99.90;;;;;;12182190;29;20421;-89
2022/06/11 03:31:58;;;;;;;7.05;1.88;;;18.80;99.90;;;;;;12198627;29;20130;-88
2022/06/11 03:38:01;;;;;;;6.35;2.20;;;18.70;99.90;;;;;;12190879;29;20059;-88
2022/06/11 03:44:04;;;;;;;7.53;2.00;;;18.80;99.90;;;;;;12179797;29;20114;-89
2022/06/11 03:50:09;;;;;;;9.35;2.00;;;18.70;99.90;;;;;;12182848;29;20052;-88
2022/06/11 03:56:12;;;;;;;6.68;2.03;;;18.70;99.90;;;;;;12195732;29;20063;-88
2022/06/11 04:02:14;;;;;;;4.70;1.70;;;18.80;99.90;;;;;;12201989;29;20131;-88
2022/06/11 04:08:17;;;;;;;5.22;1.85;;;18.70;99.90;;;;;;12189908;29;20068;-89
2022/06/11 04:14:19;;;;;;;5.80;2.08;;;18.50;99.90;;;;;;12181787;29;20395;-88
2022/06/11 04:20:21;;;;;;;7.50;2.13;;;18.60;99.90;;;;;;12182689;29;20543;-89
2022/06/11 04:26:30;;;;;;;5.65;2.33;;;18.60;99.90;;;;;;12182796;29;20068;-88
2022/06/11 04:32:32;;;;;;;8.93;2.53;;;18.60;99.90;;;;;;12200701;29;20055;-88
2022/06/11 04:38:34;;;;;;;8.27;3.05;;;18.60;99.90;;;;;;12188906;29;20161;-88
2022/06/11 04:44:36;;;;;;;8.02;2.85;;;18.60;99.90;;;;;;12234307;28;20040;-89
2022/06/11 04:50:39;;;;;;;7.35;2.78;;;18.50;99.90;;;;;;12234552;28;20040;-88
2022/06/11 04:56:41;;;;;;;7.38;2.80;;;18.30;99.90;;;;;;12213282;29;20115;-90
2022/06/11 05:02:42;;;;;;;10.70;3.47;;;18.20;99.90;;;;;;12178346;29;20051;-89
2022/06/11 05:08:44;;;;;;;11.32;3.50;;;18.20;99.90;;;;;;12170136;29;20052;-90
2022/06/11 05:14:46;;;;;;;9.05;3.78;;;18.20;99.90;;;;;;12183504;29;20048;-89
2022/06/11 05:20:49;;;;;;;10.85;4.18;;;18.20;99.90;;;;;;12200962;29;20052;-89
2022/06/11 05:27:02;;;;;;;9.75;4.72;;;18.20;99.90;;;;;;12182236;29;20118;-90
2022/06/11 05:33:04;;;;;;;11.57;5.32;;;18.20;99.90;;;;;;12183824;29;20481;-88
2022/06/11 05:39:07;;;;;;;8.88;4.10;;;18.10;99.90;;;;;;12193102;29;20507;-86
2022/06/11 05:45:09;;;;;;;7.38;3.90;;;18.20;99.90;;;;;;12179709;29;20080;-87
2022/06/11 05:51:18;;;;;;;5.28;3.00;;;18.10;99.90;;;;;;12192596;29;20228;-86
2022/06/11 05:57:25;;;;;;;6.50;3.10;;;18.20;99.90;;;;;;12197243;29;20062;-87
2022/06/11 06:03:27;;;;;;;5.45;3.10;;;18.30;99.90;;;;;;12178573;29;20060;-87
2022/06/11 06:09:29;;;;;;;7.50;3.03;;;18.40;99.90;;;;;;12188969;29;20087;-88
2022/06/11 06:15:31;;;;;;;6.15;2.03;;;18.40;99.90;;;;;;12181133;29;20139;-87
2022/06/11 06:21:34;;;;;;;4.03;1.98;;;18.40;99.90;;;;;;12183555;29;20083;-88
2022/06/11 06:27:36;;;;;;;5.10;1.83;;;18.50;99.90;;;;;;12206254;29;20148;-87
2022/06/11 06:33:39;;;;;;;9.07;2.05;;;18.60;99.90;;;;;;12186340;29;20052;-88
2022/06/11 06:39:41;;;;;;;7.53;1.60;;;18.70;99.90;;;;;;12187607;29;20498;-87
2022/06/11 06:45:43;;;;;;;7.70;1.80;;;18.80;99.90;;;;;;12204627;29;20052;-85
2022/06/11 06:51:44;;;;;;;4.07;1.65;;;18.80;99.90;;;;;;12189153;29;20047;-85
2022/06/11 06:57:46;;;;;;;3.35;1.17;;;18.90;99.90;;;;;;12220342;29;20116;-86
2022/06/11 07:03:48;;;;;;;3.55;1.33;;;18.90;99.90;;;;;;12217914;29;20036;-86
2022/06/11 07:10:10;;;;;;;2.85;1.02;;;19.00;99.90;;;;;;12203411;29;20361;-86
2022/06/11 07:16:16;;;;;;;4.88;1.23;;;19.00;99.90;;;;;;12189004;29;20981;-86
2022/06/11 07:22:25;;;;;;;6.00;1.10;;;19.00;99.90;;;;;;12187263;29;20044;-86
2022/06/11 07:28:36;;;;;;;2.70;0.90;;;19.10;99.90;;;;;;12199851;29;20544;-85
2022/06/11 07:34:39;;;;;;;3.70;0.90;;;19.20;99.90;;;;;;12206515;29;20040;-84
2022/06/11 07:40:41;;;;;;;6.30;1.45;;;19.20;99.90;;;;;;12198002;29;20131;-85
2022/06/11 07:46:43;;;;;;;5.22;1.30;;;19.40;99.90;;;;;;12183614;29;20122;-85
2022/06/11 07:52:45;;;;;;;4.40;1.02;;;19.40;99.90;;;;;;12184180;29;20044;-88
2022/06/11 07:58:49;;;;;;;2.47;0.90;;;19.60;99.90;;;;;;12183390;29;20060;-88
2022/06/11 08:04:51;;;;;;;4.07;1.10;;;19.60;99.90;;;;;;12203950;29;20052;-85
2022/06/11 08:10:53;;;;;;;2.55;1.00;;;19.70;99.90;;;;;;12204281;29;20086;-85
2022/06/11 08:16:55;;;;;;;3.33;1.13;;;19.80;99.90;;;;;;12183861;29;20103;-88
2022/06/11 08:22:57;;;;;;;2.72;0.90;;;20.10;99.90;;;;;;12193875;29;20473;-88
2022/06/11 08:28:59;;;;;;;2.30;1.00;;;20.30;99.90;;;;;;12185267;29;20096;-90
2022/06/11 08:35:01;;;;;;;3.25;0.90;;;20.30;99.90;;;;;;12201293;29;20133;-86
2022/06/11 08:41:08;;;;;;;4.32;1.00;;;20.30;99.90;;;;;;12213896;29;20056;-88
2022/06/11 08:47:13;;;;;;;3.50;1.00;;;20.20;99.90;;;;;;12228026;29;20064;-87
2022/06/11 08:53:16;;;;;;;3.45;1.02;;;20.20;99.90;;;;;;12196956;29;20083;-84
2022/06/11 08:59:27;;;;;;;2.23;1.13;;;20.40;99.90;;;;;;12202639;29;20461;-88
2022/06/11 09:06:02;;;;;;;5.22;1.23;;;20.40;99.90;;;;;;12193615;29;20104;-86
2022/06/11 09:12:23;;;;;;;4.70;1.40;;;20.40;99.90;;;;;;12174687;29;20123;-87
2022/06/11 09:18:41;;;;;;;4.82;1.10;;;20.50;99.90;;;;;;12172756;29;20064;-90
2022/06/11 09:25:00;;;;;;;5.13;1.35;;;20.90;99.90;;;;;;12182760;29;20112;-89
2022/06/11 09:31:19;;;;;;;4.95;1.35;;;21.10;99.90;;;;;;12197219;29;20103;-87
2022/06/11 09:37:25;;;;;;;3.33;1.02;;;21.00;99.90;;;;;;12177230;29;20060;-87
2022/06/11 09:43:30;;;;;;;4.53;1.50;;;21.10;99.90;;;;;;12184581;29;20051;-88
2022/06/11 09:50:08;;;;;;;3.30;0.93;;;21.20;99.90;;;;;;12179742;29;20524;-84
2022/06/11 09:56:25;;;;;;;2.33;0.90;;;21.20;99.90;;;;;;12189658;29;20120;-89
2022/06/11 10:03:01;;;;;;;2.13;0.68;;;21.30;99.90;;;;;;12177244;29;20390;-89
2022/06/11 10:09:16;;;;;;;3.10;0.95;;;21.20;99.90;;;;;;12187383;29;20060;-84
2022/06/11 10:15:27;;;;;;;4.18;0.80;;;21.50;99.90;;;;;;12174307;29;20052;-87
2022/06/11 10:21:31;;;;;;;5.20;1.10;;;21.80;99.90;;;;;;12193975;29;21864;-88
2022/06/11 10:27:38;;;;;;;3.08;1.02;;;22.20;99.90;;;;;;12198381;29;20577;-85
2022/06/11 10:34:01;;;;;;;3.47;1.20;;;22.10;99.90;;;;;;12182574;29;20052;-87
2022/06/11 10:40:22;;;;;;;4.90;1.08;;;21.80;99.90;;;;;;12187763;29;20111;-87
2022/06/11 10:46:24;;;;;;;1.83;0.90;;;22.00;99.90;;;;;;12197418;29;20056;-87
2022/06/11 10:52:38;;;;;;;2.75;1.10;;;22.10;99.90;;;;;;12201246;29;20060;-89
2022/06/11 10:58:46;;;;;;;1.80;1.00;;;22.40;99.90;;;;;;12194595;29;21355;-88
2022/06/11 11:04:57;;;;;;;3.25;0.90;;;22.60;99.90;;;;;;12214820;29;20449;-89
2022/06/11 11:11:00;;;;;;;4.63;1.02;;;22.40;99.90;;;;;;12197217;29;20075;-87
2022/06/11 11:17:05;;;;;;;3.38;1.08;;;22.70;99.90;;;;;;12179432;29;20059;-90
2022/06/11 11:23:14;;;;;;;4.90;0.90;;;22.70;99.90;;;;;;12180370;29;20064;-88
2022/06/11 11:29:34;;;;;;;4.28;1.02;;;22.00;99.90;;;;;;12203399;29;20087;-89
2022/06/11 11:35:39;;;;;;;3.25;1.10;;;21.80;99.90;;;;;;12183999;29;20080;-88
2022/06/11 11:42:07;;;;;;;5.82;1.27;;;22.10;99.90;;;;;;12179713;29;20110;-88
2022/06/11 11:48:30;;;;;;;4.65;1.13;;;22.40;99.90;;;;;;12177707;29;20112;-84
2022/06/11 11:54:34;;;;;;;3.22;1.02;;;22.20;99.90;;;;;;12193820;29;20120;-88
2022/06/11 12:00:55;;;;;;;1.80;0.90;;;22.40;99.90;;;;;;12197492;29;20062;-89
2022/06/11 12:07:03;;;;;;;4.13;0.90;;;23.00;99.90;;;;;;12197778;29;20117;-88
2022/06/11 12:13:26;;;;;;;2.58;0.80;;;23.60;99.90;;;;;;12195419;29;20044;-89
2022/06/11 12:19:32;;;;;;;4.10;0.95;;;23.80;99.90;;;;;;12170027;29;20156;-89
2022/06/11 12:25:58;;;;;;;2.60;0.60;;;24.10;99.90;;;;;;12179084;29;20333;-84
2022/06/11 12:32:09;;;;;;;3.53;1.00;;;23.40;99.90;;;;;;12217153;29;20135;-86
2022/06/11 12:38:24;;;;;;;2.90;0.63;;;22.50;99.90;;;;;;12207811;29;20052;-83
2022/06/11 12:44:43;;;;;;;2.22;1.02;;;21.90;99.90;;;;;;12210105;28;20092;-83
2022/06/11 12:51:01;;;;;;;3.67;1.40;;;21.70;99.90;;;;;;12190312;29;20080;-87
2022/06/11 12:57:07;;;;;;;3.65;0.82;;;22.20;99.90;;;;;;12193588;29;20059;-87
2022/06/11 13:03:30;;;;;;;2.92;0.98;;;22.80;99.90;;;;;;12197248;29;20109;-88
2022/06/11 13:09:58;;;;;;;4.35;1.02;;;23.30;99.90;;;;;;12178254;29;20060;-86
2022/06/11 13:16:18;;;;;;;3.45;0.80;;;23.10;99.90;;;;;;12176007;29;20044;-85
2022/06/11 13:22:48;;;;;;;2.60;0.90;;;23.10;99.90;;;;;;12181361;29;20048;-85
2022/06/11 13:28:59;;;;;;;3.17;1.00;;;23.30;99.90;;;;;;12189061;29;20103;-86
2022/06/11 13:35:24;;;;;;;4.45;1.30;;;23.50;99.90;;;;;;12189280;29;20040;-87
2022/06/11 13:41:43;;;;;;;4.90;1.13;;;23.00;99.90;;;;;;12186526;29;20057;-85
2022/06/11 13:48:07;;;;;;;3.13;0.77;;;23.10;99.90;;;;;;12169252;29;20485;-85
2022/06/11 14:00:54;;;;;;;2.53;0.85;;;22.70;99.90;;;;;;12183857;29;20056;-87
2022/06/11 14:06:59;;;;;;;2.35;0.88;;;22.90;99.90;;;;;;12192748;29;20051;-85
2022/06/11 14:13:08;;;;;;;3.80;0.90;;;22.90;99.90;;;;;;12198996;29;20056;-83
2022/06/11 14:19:16;;;;;;;2.28;0.77;;;23.10;99.90;;;;;;12176899;29;20064;-86
2022/06/11 14:25:36;;;;;;;3.35;0.85;;;23.20;99.90;;;;;;12191085;29;20143;-87
2022/06/11 14:31:58;;;;;;;5.40;1.13;;;23.30;99.90;;;;;;12168544;29;20191;-86
2022/06/11 14:38:22;;;;;;;2.85;1.10;;;23.50;99.90;;;;;;12203186;29;20059;-83
2022/06/11 14:44:25;;;;;;;4.78;1.23;;;23.40;99.90;;;;;;12176721;29;20080;-85
2022/06/11 14:51:00;;;;;;;3.25;0.98;;;23.50;99.90;;;;;;12193621;29;20107;-86
2022/06/11 14:57:21;;;;;;;2.05;0.90;;;23.40;99.90;;;;;;12209497;29;20052;-83
2022/06/11 15:03:58;;;;;;;3.75;0.80;;;23.60;99.90;;;;;;12195957;29;20271;-86
2022/06/11 15:11:00;;;;;;;2.22;0.80;;;23.70;99.90;;;;;;12065005;29;20904;-86
2022/06/11 15:17:08;;;;;;;3.53;0.80;;;23.70;99.90;;;;;;12012064;29;20140;-87
2022/06/11 15:23:17;;;;;;;1.58;0.70;;;23.90;99.90;;;;;;12190635;29;20091;-86
2022/06/11 15:29:20;;;;;;;2.67;0.90;;;23.90;99.90;;;;;;12208387;29;20060;-87
2022/06/11 15:35:29;;;;;;;;;;;23.90;99.90;;;;;;12193004;29;20509;-86
2022/06/11 15:41:36;;;;;;;4.82;0.90;;;24.00;99.90;;;;;;12174941;29;20033;-87
2022/06/11 15:47:55;;;;;;;3.13;0.90;;;24.00;99.90;;;;;;12176835;29;20139;-87
2022/06/11 16:00:37;;;;;;;2.97;0.90;;;24.20;99.90;;;;;;12193659;29;20069;-86
2022/06/11 16:06:41;;;;;;;5.32;1.05;;;24.10;99.90;;;;;;12201078;29;20548;-86
2022/06/11 16:12:45;;;;;;;4.43;0.82;;;24.10;99.90;;;;;;12178847;29;20146;-88
2022/06/11 16:18:47;;;;;;;4.53;1.10;;;24.20;99.90;;;;;;12183485;29;20542;-89
2022/06/11 16:24:54;;;;;;;4.18;0.90;;;24.20;99.90;;;;;;12182365;29;20527;-86
2022/06/11 16:30:57;;;;;;;2.13;0.80;;;24.20;99.90;;;;;;12172419;29;20060;-87
2022/06/11 16:37:17;;;;;;;4.23;0.80;;;24.20;99.90;;;;;;12183396;29;20572;-87
2022/06/11 16:43:24;;;;;;;2.50;0.80;;;24.00;99.90;;;;;;12181814;29;20048;-88
2022/06/11 16:56:07;;;;;;;5.15;1.00;;;24.40;99.90;;;;;;12193624;29;20044;-87
2022/06/11 17:08:53;;;;;;;3.08;0.98;;;24.30;99.90;;;;;;12193533;29;20115;-87
2022/06/11 17:15:00;;;;;;;3.15;0.95;;;24.20;99.90;;;;;;12179679;29;20048;-88
2022/06/11 17:21:06;;;;;;;7.75;1.38;;;24.40;99.90;;;;;;12196106;29;20522;-87
2022/06/11 17:27:17;;;;;;;6.15;1.10;;;24.60;99.90;;;;;;12179337;29;20052;-87
2022/06/11 17:33:20;;;;;;;3.85;1.13;;;24.50;99.90;;;;;;12166979;29;20572;-87
2022/06/11 17:39:24;;;;;;;6.35;1.10;;;24.50;99.90;;;;;;12179281;29;20060;-88
2022/06/11 17:45:27;;;;;;;5.35;0.95;;;24.70;99.90;;;;;;12176203;29;20847;-87
2022/06/11 17:51:31;;;;;;;4.45;1.40;;;24.80;99.90;;;;;;12179726;29;20093;-87
2022/06/11 17:57:34;;;;;;;4.47;1.10;;;24.60;99.90;;;;;;12186364;29;20142;-87
2022/06/11 18:03:36;;;;;;;3.78;1.10;;;24.60;99.90;;;;;;12177782;29;20087;-87
2022/06/11 18:09:39;;;;;;;2.67;1.00;;;24.30;99.90;;;;;;12184943;29;20459;-86
2022/06/11 18:15:47;;;;;;;4.25;1.00;;;24.10;99.90;;;;;;12177888;29;20048;-86
2022/06/11 18:28:09;;;;;;;4.78;1.02;;;23.20;99.90;;;;;;12198558;29;20056;-87
2022/06/11 18:34:12;;;;;;;5.50;1.20;;;22.90;99.90;;;;;;12187836;29;20514;-87
2022/06/11 18:40:17;;;;;;;4.45;1.45;;;22.90;99.90;;;;;;12187466;29;20084;-87
2022/06/11 18:46:19;;;;;;;3.63;1.33;;;22.70;99.90;;;;;;12188232;29;20135;-87
2022/06/11 18:52:23;;;;;;;6.88;1.25;;;22.60;99.90;;;;;;12223548;29;20485;-87
2022/06/11 18:58:25;;;;;;;4.90;0.88;;;22.40;99.90;;;;;;12185302;29;20083;-87
2022/06/11 19:04:27;;;;;;;5.03;1.52;;;22.20;99.90;;;;;;12201390;29;20057;-86
2022/06/11 19:10:29;;;;;;;6.38;1.48;;;22.10;99.90;;;;;;12177435;29;20081;-87
2022/06/11 19:16:31;;;;;;;4.35;1.23;;;22.00;99.90;;;;;;12183425;29;20056;-87
2022/06/11 19:22:33;;;;;;;4.75;1.35;;;21.90;99.90;;;;;;12194375;29;21561;-86
2022/06/11 19:28:35;;;;;;;5.47;1.38;;;21.80;99.90;;;;;;12190099;29;20060;-86
2022/06/11 19:34:37;;;;;;;8.43;1.52;;;21.90;99.90;;;;;;12180350;29;20052;-87
2022/06/11 19:40:42;;;;;;;6.40;1.92;;;21.70;99.90;;;;;;12196150;29;20088;-86
2022/06/11 19:46:44;;;;;;;8.57;1.90;;;21.60;99.90;;;;;;12180731;29;20513;-86
2022/06/11 19:52:48;;;;;;;6.07;1.65;;;21.30;99.90;;;;;;12176203;29;21919;-87
2022/06/11 19:58:52;;;;;;;5.90;1.40;;;21.20;99.90;;;;;;12173392;29;20143;-86
2022/06/11 20:04:54;;;;;;;6.35;1.55;;;21.10;99.90;;;;;;12176363;29;20099;-86
2022/06/11 20:10:56;;;;;;;5.30;1.20;;;20.80;99.90;;;;;;12179659;29;20056;-86
2022/06/11 20:16:58;;;;;;;7.22;1.55;;;20.60;99.90;;;;;;12176069;29;20143;-86
2022/06/11 20:23:00;;;;;;;5.30;1.27;;;20.50;99.90;;;;;;12204986;29;20081;-86
2022/06/11 20:29:02;;;;;;;6.68;1.50;;;20.40;99.90;;;;;;12175065;29;20131;-86
2022/06/11 20:35:05;;;;;;;5.63;1.43;;;20.40;99.90;;;;;;12182565;29;20184;-86
2022/06/11 20:41:07;;;;;;;8.00;1.63;;;20.30;99.90;;;;;;12185764;29;20052;-85
2022/06/11 20:47:10;;;;;;;7.20;1.83;;;20.20;99.90;;;;;;12174497;29;20093;-85
2022/06/11 20:53:12;;;;;;;5.35;1.30;;;19.90;99.90;;;;;;12189615;29;20120;-86
2022/06/11 20:59:13;;;;;;;8.63;1.90;;;19.90;99.90;;;;;;12175523;29;20122;-85
2022/06/11 21:05:20;;;;;;;6.20;1.50;;;19.90;99.90;;;;;;12180923;29;20056;-86
2022/06/11 21:11:51;;;;;;;7.88;1.88;;;19.90;99.90;;;;;;12179124;29;20485;-85
2022/06/11 21:17:46;;;;;;;5.70;1.60;;;19.80;99.90;;;;;;12186822;29;20070;-86
2022/06/11 21:23:48;;;;;;;;;;;19.70;99.90;;;;;;12177458;29;20501;-85
2022/06/11 21:29:51;;;;;;;6.22;1.50;;;19.60;99.90;;;;;;12190425;29;19923;-85
2022/06/11 21:35:53;;;;;;;;;;;19.50;99.90;;;;;;12187859;29;20048;-85
2022/06/11 21:42:01;;;;;;;4.80;1.55;;;19.60;99.90;;;;;;12178622;29;19933;-86
2022/06/11 21:48:03;;;;;;;7.97;2.25;;;19.80;99.90;;;;;;12174981;29;20056;-85
2022/06/11 21:54:05;;;;;;;8.18;1.85;;;19.80;99.90;;;;;;12178783;29;20135;-85
2022/06/11 22:00:15;;;;;;;8.15;1.88;;;19.70;99.90;;;;;;12178092;29;20047;-86
2022/06/11 22:06:18;;;;;;;7.65;1.88;;;19.50;99.90;;;;;;12211255;28;20135;-85
2022/06/11 22:12:21;;;;;;;7.18;2.50;;;19.30;99.90;;;;;;12174976;29;20075;-85
2022/06/11 22:18:22;;;;;;;6.28;1.85;;;19.20;99.90;;;;;;12184988;29;20497;-85
2022/06/11 22:24:41;;;;;;;6.22;1.90;;;19.20;99.90;;;;;;12177913;29;20052;-85
2022/06/11 22:30:43;;;;;;;5.57;1.90;;;19.10;99.90;;;;;;12176587;29;20056;-85
2022/06/11 22:36:47;;;;;;;8.38;1.98;;;19.10;99.90;;;;;;12170323;29;20063;-86
2022/06/11 22:42:50;;;;;;;8.90;2.22;;;19.10;99.90;;;;;;12175329;29;20052;-85
2022/06/11 22:48:52;;;;;;;6.60;2.00;;;19.10;99.90;;;;;;12172282;29;20543;-85
2022/06/11 22:54:54;;;;;;;10.23;2.63;;;18.90;99.90;;;;;;12190874;29;20296;-85
2022/06/11 23:00:56;;;;;;;10.85;2.15;;;18.90;99.90;;;;;;12193966;29;20083;-85
2022/06/11 23:07:00;;;;;;;7.75;1.80;;;18.90;99.90;;;;;;12200001;29;20056;-85
2022/06/11 23:13:04;;;;;;;8.05;2.00;;;18.90;99.90;;;;;;12199235;29;20142;-85
2022/06/11 23:19:06;;;;;;;8.80;1.90;;;19.00;99.90;;;;;;12181192;29;20114;-85
2022/06/11 23:25:11;;;;;;;9.02;1.90;;;19.10;99.90;;;;;;12184558;29;20188;-85
2022/06/11 23:31:14;;;;;;;5.97;2.08;;;19.00;99.90;;;;;;12198020;29;20481;-85
2022/06/11 23:37:16;;;;;;;8.90;2.25;;;19.10;99.90;;;;;;12183849;29;20505;-85
2022/06/11 23:43:18;;;;;;;7.00;2.05;;;19.10;99.90;;;;;;12180846;29;20052;-85
2022/06/11 23:49:20;;;;;;;8.00;2.20;;;19.00;99.90;;;;;;12179136;29;20056;-85
2022/06/11 23:55:22;;;;;;;12.95;2.72;;;18.90;99.90;;;;;;12199169;29;20052;-84
